sensor_id;sensor_type;location;lat;lon;timestamp;temperature;humidity
56066;DHT22;75952;50.922;4.514;2024-01-25T00:00:01;9.30;89.20
56066;DHT22;75952;50.922;4.514;2024-01-25T00:02:27;9.40;89.70
56066;DHT22;75952;50.922;4.514;2024-01-25T00:04:54;9.40;88.70
56066;DHT22;75952;50.922;4.514;2024-01-25T00:07:25;9.50;88.50
56066;DHT22;75952;50.922;4.514;2024-01-25T00:09:53;9.40;88.70
56066;DHT22;75952;50.922;4.514;2024-01-25T00:12:21;9.20;89.70
56066;DHT22;75952;50.922;4.514;2024-01-25T00:14:46;9.20;89.80
56066;DHT22;75952;50.922;4.514;2024-01-25T00:17:12;9.10;90.10
56066;DHT22;75952;50.922;4.514;2024-01-25T00:19:40;9.10;90.10
56066;DHT22;75952;50.922;4.514;2024-01-25T00:22:10;9.10;90.10
56066;DHT22;75952;50.922;4.514;2024-01-25T00:24:38;8.90;90.30
56066;DHT22;75952;50.922;4.514;2024-01-25T00:27:06;9.00;90.20
56066;DHT22;75952;50.922;4.514;2024-01-25T00:29:34;9.00;90.20
56066;DHT22;75952;50.922;4.514;2024-01-25T00:32:03;8.90;90.40
56066;DHT22;75952;50.922;4.514;2024-01-25T00:34:28;8.90;90.40
56066;DHT22;75952;50.922;4.514;2024-01-25T00:36:54;8.80;90.60
56066;DHT22;75952;50.922;4.514;2024-01-25T00:39:20;8.80;90.70
56066;DHT22;75952;50.922;4.514;2024-01-25T00:41:51;8.60;91.20
56066;DHT22;75952;50.922;4.514;2024-01-25T00:44:17;8.50;91.70
56066;DHT22;75952;50.922;4.514;2024-01-25T00:46:45;8.40;91.80
56066;DHT22;75952;50.922;4.514;2024-01-25T00:49:15;8.50;91.70
56066;DHT22;75952;50.922;4.514;2024-01-25T00:51:46;8.50;91.40
56066;DHT22;75952;50.922;4.514;2024-01-25T00:54:13;8.60;91.40
56066;DHT22;75952;50.922;4.514;2024-01-25T00:56:39;8.50;91.20
56066;DHT22;75952;50.922;4.514;2024-01-25T00:59:05;8.60;91.20
56066;DHT22;75952;50.922;4.514;2024-01-25T01:01:31;8.50;91.00
56066;DHT22;75952;50.922;4.514;2024-01-25T01:03:58;8.50;91.10
56066;DHT22;75952;50.922;4.514;2024-01-25T01:06:29;8.40;91.30
56066;DHT22;75952;50.922;4.514;2024-01-25T01:08:55;8.40;91.40
56066;DHT22;75952;50.922;4.514;2024-01-25T01:11:21;8.30;91.80
56066;DHT22;75952;50.922;4.514;2024-01-25T01:13:47;8.30;91.90
56066;DHT22;75952;50.922;4.514;2024-01-25T01:16:13;8.30;91.80
56066;DHT22;75952;50.922;4.514;2024-01-25T01:18:38;8.30;91.70
56066;DHT22;75952;50.922;4.514;2024-01-25T01:21:04;8.30;91.50
56066;DHT22;75952;50.922;4.514;2024-01-25T01:23:30;8.20;91.30
56066;DHT22;75952;50.922;4.514;2024-01-25T01:25:58;8.20;91.70
56066;DHT22;75952;50.922;4.514;2024-01-25T01:28:25;8.10;91.60
56066;DHT22;75952;50.922;4.514;2024-01-25T01:30:53;8.20;91.60
56066;DHT22;75952;50.922;4.514;2024-01-25T01:33:21;8.20;91.50
56066;DHT22;75952;50.922;4.514;2024-01-25T01:35:47;8.10;91.80
56066;DHT22;75952;50.922;4.514;2024-01-25T01:38:12;8.10;91.70
56066;DHT22;75952;50.922;4.514;2024-01-25T01:40:40;8.00;91.80
56066;DHT22;75952;50.922;4.514;2024-01-25T01:43:06;8.00;92.10
56066;DHT22;75952;50.922;4.514;2024-01-25T01:45:31;8.00;92.10
56066;DHT22;75952;50.922;4.514;2024-01-25T01:47:58;8.00;92.00
56066;DHT22;75952;50.922;4.514;2024-01-25T01:50:24;8.00;91.70
56066;DHT22;75952;50.922;4.514;2024-01-25T01:52:51;8.00;91.80
56066;DHT22;75952;50.922;4.514;2024-01-25T01:55:19;8.00;91.70
56066;DHT22;75952;50.922;4.514;2024-01-25T01:57:46;7.90;91.90
56066;DHT22;75952;50.922;4.514;2024-01-25T02:00:15;7.80;92.00
56066;DHT22;75952;50.922;4.514;2024-01-25T02:02:44;7.90;91.90
56066;DHT22;75952;50.922;4.514;2024-01-25T02:05:10;7.90;91.80
56066;DHT22;75952;50.922;4.514;2024-01-25T02:07:39;7.80;92.20
56066;DHT22;75952;50.922;4.514;2024-01-25T02:10:06;7.80;92.00
56066;DHT22;75952;50.922;4.514;2024-01-25T02:12:32;7.60;92.10
56066;DHT22;75952;50.922;4.514;2024-01-25T02:15:00;7.60;92.30
56066;DHT22;75952;50.922;4.514;2024-01-25T02:17:31;7.70;92.10
56066;DHT22;75952;50.922;4.514;2024-01-25T02:19:57;7.60;91.70
56066;DHT22;75952;50.922;4.514;2024-01-25T02:22:22;7.60;91.90
56066;DHT22;75952;50.922;4.514;2024-01-25T02:24:50;7.40;92.20
56066;DHT22;75952;50.922;4.514;2024-01-25T02:27:16;7.40;92.20
56066;DHT22;75952;50.922;4.514;2024-01-25T02:29:41;7.40;92.10
56066;DHT22;75952;50.922;4.514;2024-01-25T02:32:09;7.40;92.30
56066;DHT22;75952;50.922;4.514;2024-01-25T02:34:35;7.30;92.20
56066;DHT22;75952;50.922;4.514;2024-01-25T02:37:03;7.30;92.40
56066;DHT22;75952;50.922;4.514;2024-01-25T02:39:29;7.30;92.60
56066;DHT22;75952;50.922;4.514;2024-01-25T02:41:54;7.30;92.30
56066;DHT22;75952;50.922;4.514;2024-01-25T02:44:22;7.30;92.20
56066;DHT22;75952;50.922;4.514;2024-01-25T02:46:48;7.30;92.00
56066;DHT22;75952;50.922;4.514;2024-01-25T02:49:16;7.20;91.90
56066;DHT22;75952;50.922;4.514;2024-01-25T02:51:41;7.10;92.20
56066;DHT22;75952;50.922;4.514;2024-01-25T02:54:07;7.10;92.30
56066;DHT22;75952;50.922;4.514;2024-01-25T02:56:35;7.10;92.10
56066;DHT22;75952;50.922;4.514;2024-01-25T02:59:01;7.00;92.10
56066;DHT22;75952;50.922;4.514;2024-01-25T03:01:27;7.00;92.40
56066;DHT22;75952;50.922;4.514;2024-01-25T03:03:53;6.90;92.30
56066;DHT22;75952;50.922;4.514;2024-01-25T03:06:21;7.00;92.00
56066;DHT22;75952;50.922;4.514;2024-01-25T03:08:47;6.90;91.70
56066;DHT22;75952;50.922;4.514;2024-01-25T03:11:12;6.90;92.30
56066;DHT22;75952;50.922;4.514;2024-01-25T03:13:40;6.80;92.50
56066;DHT22;75952;50.922;4.514;2024-01-25T03:16:06;6.80;92.40
56066;DHT22;75952;50.922;4.514;2024-01-25T03:18:32;6.80;92.50
56066;DHT22;75952;50.922;4.514;2024-01-25T03:20:57;6.80;92.40
56066;DHT22;75952;50.922;4.514;2024-01-25T03:23:23;6.80;92.60
56066;DHT22;75952;50.922;4.514;2024-01-25T03:25:48;6.80;92.40
56066;DHT22;75952;50.922;4.514;2024-01-25T03:28:14;6.80;92.70
56066;DHT22;75952;50.922;4.514;2024-01-25T03:30:41;6.70;92.20
56066;DHT22;75952;50.922;4.514;2024-01-25T03:33:10;6.80;91.90
56066;DHT22;75952;50.922;4.514;2024-01-25T03:35:35;6.80;92.00
56066;DHT22;75952;50.922;4.514;2024-01-25T03:38:01;6.60;92.30
56066;DHT22;75952;50.922;4.514;2024-01-25T03:40:26;6.60;92.00
56066;DHT22;75952;50.922;4.514;2024-01-25T03:42:52;6.50;91.50
56066;DHT22;75952;50.922;4.514;2024-01-25T03:45:18;6.70;91.20
56066;DHT22;75952;50.922;4.514;2024-01-25T03:47:43;6.50;90.80
56066;DHT22;75952;50.922;4.514;2024-01-25T03:50:09;6.40;91.00
56066;DHT22;75952;50.922;4.514;2024-01-25T03:52:35;6.30;91.30
56066;DHT22;75952;50.922;4.514;2024-01-25T03:55:01;6.20;91.00
56066;DHT22;75952;50.922;4.514;2024-01-25T03:57:29;6.20;91.60
56066;DHT22;75952;50.922;4.514;2024-01-25T03:59:55;6.10;91.60
56066;DHT22;75952;50.922;4.514;2024-01-25T04:02:23;6.00;91.50
56066;DHT22;75952;50.922;4.514;2024-01-25T04:04:51;5.90;91.50
56066;DHT22;75952;50.922;4.514;2024-01-25T04:07:19;5.80;91.40
56066;DHT22;75952;50.922;4.514;2024-01-25T04:09:45;5.80;91.60
56066;DHT22;75952;50.922;4.514;2024-01-25T04:12:12;5.60;92.10
56066;DHT22;75952;50.922;4.514;2024-01-25T04:14:38;5.80;91.90
56066;DHT22;75952;50.922;4.514;2024-01-25T04:17:08;5.70;91.80
56066;DHT22;75952;50.922;4.514;2024-01-25T04:19:35;5.60;92.30
56066;DHT22;75952;50.922;4.514;2024-01-25T04:22:04;5.70;92.30
56066;DHT22;75952;50.922;4.514;2024-01-25T04:24:29;5.80;91.80
56066;DHT22;75952;50.922;4.514;2024-01-25T04:26:55;5.80;91.40
56066;DHT22;75952;50.922;4.514;2024-01-25T04:29:21;5.70;91.10
56066;DHT22;75952;50.922;4.514;2024-01-25T04:31:47;5.70;91.10
56066;DHT22;75952;50.922;4.514;2024-01-25T04:34:18;5.60;90.50
56066;DHT22;75952;50.922;4.514;2024-01-25T04:36:46;5.40;91.10
56066;DHT22;75952;50.922;4.514;2024-01-25T04:39:11;5.40;91.20
56066;DHT22;75952;50.922;4.514;2024-01-25T04:41:37;5.40;91.10
56066;DHT22;75952;50.922;4.514;2024-01-25T04:44:03;5.30;91.10
56066;DHT22;75952;50.922;4.514;2024-01-25T04:46:29;5.40;90.90
56066;DHT22;75952;50.922;4.514;2024-01-25T04:49:00;5.40;90.50
56066;DHT22;75952;50.922;4.514;2024-01-25T04:51:29;5.40;90.50
56066;DHT22;75952;50.922;4.514;2024-01-25T04:53:54;5.40;90.40
56066;DHT22;75952;50.922;4.514;2024-01-25T04:56:20;5.40;90.40
56066;DHT22;75952;50.922;4.514;2024-01-25T04:58:48;5.20;90.80
56066;DHT22;75952;50.922;4.514;2024-01-25T05:01:16;5.10;91.00
56066;DHT22;75952;50.922;4.514;2024-01-25T05:03:41;5.20;90.90
56066;DHT22;75952;50.922;4.514;2024-01-25T05:06:07;5.10;90.90
56066;DHT22;75952;50.922;4.514;2024-01-25T05:08:33;5.10;90.80
56066;DHT22;75952;50.922;4.514;2024-01-25T05:10:58;4.90;90.80
56066;DHT22;75952;50.922;4.514;2024-01-25T05:13:24;4.70;90.90
56066;DHT22;75952;50.922;4.514;2024-01-25T05:15:49;4.60;91.40
56066;DHT22;75952;50.922;4.514;2024-01-25T05:18:15;4.60;91.80
56066;DHT22;75952;50.922;4.514;2024-01-25T05:20:43;4.60;92.10
56066;DHT22;75952;50.922;4.514;2024-01-25T05:23:11;4.60;91.70
56066;DHT22;75952;50.922;4.514;2024-01-25T05:25:37;4.60;91.30
56066;DHT22;75952;50.922;4.514;2024-01-25T05:28:03;4.70;91.20
56066;DHT22;75952;50.922;4.514;2024-01-25T05:30:28;4.70;91.10
56066;DHT22;75952;50.922;4.514;2024-01-25T05:32:55;4.70;90.80
56066;DHT22;75952;50.922;4.514;2024-01-25T05:35:21;4.80;90.50
56066;DHT22;75952;50.922;4.514;2024-01-25T05:37:46;4.70;90.80
56066;DHT22;75952;50.922;4.514;2024-01-25T05:40:12;4.60;91.40
56066;DHT22;75952;50.922;4.514;2024-01-25T05:42:39;4.80;91.60
56066;DHT22;75952;50.922;4.514;2024-01-25T05:45:06;4.80;92.10
56066;DHT22;75952;50.922;4.514;2024-01-25T05:47:32;4.80;92.30
56066;DHT22;75952;50.922;4.514;2024-01-25T05:50:00;4.70;91.80
56066;DHT22;75952;50.922;4.514;2024-01-25T05:52:28;4.60;91.90
56066;DHT22;75952;50.922;4.514;2024-01-25T05:54:56;4.70;91.70
56066;DHT22;75952;50.922;4.514;2024-01-25T05:57:26;4.60;91.30
56066;DHT22;75952;50.922;4.514;2024-01-25T05:59:53;4.60;91.60
56066;DHT22;75952;50.922;4.514;2024-01-25T06:02:19;4.60;91.80
56066;DHT22;75952;50.922;4.514;2024-01-25T06:04:44;4.50;92.00
56066;DHT22;75952;50.922;4.514;2024-01-25T06:07:10;4.50;91.90
56066;DHT22;75952;50.922;4.514;2024-01-25T06:09:38;4.60;91.60
56066;DHT22;75952;50.922;4.514;2024-01-25T06:12:04;4.60;91.50
56066;DHT22;75952;50.922;4.514;2024-01-25T06:14:30;4.50;91.40
56066;DHT22;75952;50.922;4.514;2024-01-25T06:16:55;4.50;91.50
56066;DHT22;75952;50.922;4.514;2024-01-25T06:19:22;4.30;92.00
56066;DHT22;75952;50.922;4.514;2024-01-25T06:21:47;4.40;92.40
56066;DHT22;75952;50.922;4.514;2024-01-25T06:24:15;4.60;92.60
56066;DHT22;75952;50.922;4.514;2024-01-25T06:26:41;4.70;92.80
56066;DHT22;75952;50.922;4.514;2024-01-25T06:29:06;4.70;92.90
56066;DHT22;75952;50.922;4.514;2024-01-25T06:31:32;4.70;92.90
56066;DHT22;75952;50.922;4.514;2024-01-25T06:33:58;4.70;92.20
56066;DHT22;75952;50.922;4.514;2024-01-25T06:36:23;4.60;92.30
56066;DHT22;75952;50.922;4.514;2024-01-25T06:38:49;4.60;92.20
56066;DHT22;75952;50.922;4.514;2024-01-25T06:41:17;4.50;92.60
56066;DHT22;75952;50.922;4.514;2024-01-25T06:43:43;4.50;92.60
56066;DHT22;75952;50.922;4.514;2024-01-25T06:46:08;4.60;92.70
56066;DHT22;75952;50.922;4.514;2024-01-25T06:48:34;4.60;92.70
56066;DHT22;75952;50.922;4.514;2024-01-25T06:51:00;4.60;92.70
56066;DHT22;75952;50.922;4.514;2024-01-25T06:53:31;4.60;92.30
56066;DHT22;75952;50.922;4.514;2024-01-25T06:55:56;4.70;92.20
56066;DHT22;75952;50.922;4.514;2024-01-25T06:58:22;4.80;92.30
56066;DHT22;75952;50.922;4.514;2024-01-25T07:00:48;4.70;92.00
56066;DHT22;75952;50.922;4.514;2024-01-25T07:03:18;4.90;92.10
56066;DHT22;75952;50.922;4.514;2024-01-25T07:05:43;4.90;91.90
56066;DHT22;75952;50.922;4.514;2024-01-25T07:08:11;4.90;91.70
56066;DHT22;75952;50.922;4.514;2024-01-25T07:10:41;4.90;91.40
56066;DHT22;75952;50.922;4.514;2024-01-25T07:13:07;4.90;91.60
56066;DHT22;75952;50.922;4.514;2024-01-25T07:15:33;4.80;91.80
56066;DHT22;75952;50.922;4.514;2024-01-25T07:17:58;4.90;92.40
56066;DHT22;75952;50.922;4.514;2024-01-25T07:20:24;4.80;92.90
56066;DHT22;75952;50.922;4.514;2024-01-25T07:22:52;5.00;92.60
56066;DHT22;75952;50.922;4.514;2024-01-25T07:25:20;5.00;92.20
56066;DHT22;75952;50.922;4.514;2024-01-25T07:27:48;4.90;91.90
56066;DHT22;75952;50.922;4.514;2024-01-25T07:30:18;5.00;91.60
56066;DHT22;75952;50.922;4.514;2024-01-25T07:32:44;5.00;91.50
56066;DHT22;75952;50.922;4.514;2024-01-25T07:35:12;5.00;91.90
56066;DHT22;75952;50.922;4.514;2024-01-25T07:37:40;5.00;91.80
56066;DHT22;75952;50.922;4.514;2024-01-25T07:40:07;4.90;91.70
56066;DHT22;75952;50.922;4.514;2024-01-25T07:42:33;4.90;91.90
56066;DHT22;75952;50.922;4.514;2024-01-25T07:44:59;4.90;91.80
56066;DHT22;75952;50.922;4.514;2024-01-25T07:47:24;4.90;91.60
56066;DHT22;75952;50.922;4.514;2024-01-25T07:49:50;4.90;91.60
56066;DHT22;75952;50.922;4.514;2024-01-25T07:52:15;4.90;91.20
56066;DHT22;75952;50.922;4.514;2024-01-25T07:54:41;4.90;91.90
56066;DHT22;75952;50.922;4.514;2024-01-25T07:57:07;4.90;92.50
56066;DHT22;75952;50.922;4.514;2024-01-25T07:59:33;5.00;92.60
56066;DHT22;75952;50.922;4.514;2024-01-25T08:01:58;5.10;92.50
56066;DHT22;75952;50.922;4.514;2024-01-25T08:04:26;5.20;92.20
56066;DHT22;75952;50.922;4.514;2024-01-25T08:06:52;5.40;91.80
56066;DHT22;75952;50.922;4.514;2024-01-25T08:09:20;5.40;91.70
56066;DHT22;75952;50.922;4.514;2024-01-25T08:11:46;5.40;91.60
56066;DHT22;75952;50.922;4.514;2024-01-25T08:14:11;5.40;91.90
56066;DHT22;75952;50.922;4.514;2024-01-25T08:16:37;5.40;92.80
56066;DHT22;75952;50.922;4.514;2024-01-25T08:19:03;5.40;92.90
56066;DHT22;75952;50.922;4.514;2024-01-25T08:21:29;5.70;93.30
56066;DHT22;75952;50.922;4.514;2024-01-25T08:23:58;5.70;93.20
56066;DHT22;75952;50.922;4.514;2024-01-25T08:26:25;6.00;93.20
56066;DHT22;75952;50.922;4.514;2024-01-25T08:28:53;6.10;93.20
56066;DHT22;75952;50.922;4.514;2024-01-25T08:31:19;6.20;93.00
56066;DHT22;75952;50.922;4.514;2024-01-25T08:33:45;6.20;92.60
56066;DHT22;75952;50.922;4.514;2024-01-25T08:36:13;6.30;92.70
56066;DHT22;75952;50.922;4.514;2024-01-25T08:38:44;6.30;92.50
56066;DHT22;75952;50.922;4.514;2024-01-25T08:41:10;6.40;92.20
56066;DHT22;75952;50.922;4.514;2024-01-25T08:43:36;6.40;92.50
56066;DHT22;75952;50.922;4.514;2024-01-25T08:46:02;6.60;92.60
56066;DHT22;75952;50.922;4.514;2024-01-25T08:48:30;6.70;92.80
56066;DHT22;75952;50.922;4.514;2024-01-25T08:50:56;6.80;92.70
56066;DHT22;75952;50.922;4.514;2024-01-25T08:53:22;6.90;92.60
56066;DHT22;75952;50.922;4.514;2024-01-25T08:55:55;6.80;92.80
56066;DHT22;75952;50.922;4.514;2024-01-25T08:58:21;6.90;92.90
56066;DHT22;75952;50.922;4.514;2024-01-25T09:00:47;7.00;93.20
56066;DHT22;75952;50.922;4.514;2024-01-25T09:03:14;7.10;92.40
56066;DHT22;75952;50.922;4.514;2024-01-25T09:05:40;7.10;92.20
56066;DHT22;75952;50.922;4.514;2024-01-25T09:08:11;7.20;92.10
56066;DHT22;75952;50.922;4.514;2024-01-25T09:10:38;7.20;92.00
56066;DHT22;75952;50.922;4.514;2024-01-25T09:13:04;7.30;91.70
56066;DHT22;75952;50.922;4.514;2024-01-25T09:15:29;7.30;91.70
56066;DHT22;75952;50.922;4.514;2024-01-25T09:17:55;7.40;91.10
56066;DHT22;75952;50.922;4.514;2024-01-25T09:20:21;7.50;91.30
56066;DHT22;75952;50.922;4.514;2024-01-25T09:22:46;7.50;90.90
56066;DHT22;75952;50.922;4.514;2024-01-25T09:25:13;7.40;91.10
56066;DHT22;75952;50.922;4.514;2024-01-25T09:27:38;7.60;91.00
56066;DHT22;75952;50.922;4.514;2024-01-25T09:30:05;7.40;91.40
56066;DHT22;75952;50.922;4.514;2024-01-25T09:32:31;7.30;91.00
56066;DHT22;75952;50.922;4.514;2024-01-25T09:34:57;7.50;91.20
56066;DHT22;75952;50.922;4.514;2024-01-25T09:37:25;7.60;91.10
56066;DHT22;75952;50.922;4.514;2024-01-25T09:39:53;7.60;91.00
56066;DHT22;75952;50.922;4.514;2024-01-25T09:42:21;7.70;91.00
56066;DHT22;75952;50.922;4.514;2024-01-25T09:44:47;7.70;90.90
56066;DHT22;75952;50.922;4.514;2024-01-25T09:47:15;7.80;90.80
56066;DHT22;75952;50.922;4.514;2024-01-25T09:49:44;7.70;90.50
56066;DHT22;75952;50.922;4.514;2024-01-25T09:52:13;7.40;91.50
56066;DHT22;75952;50.922;4.514;2024-01-25T09:54:39;7.40;91.70
56066;DHT22;75952;50.922;4.514;2024-01-25T09:57:15;7.30;92.00
56066;DHT22;75952;50.922;4.514;2024-01-25T09:59:45;7.30;92.20
56066;DHT22;75952;50.922;4.514;2024-01-25T10:02:11;7.40;91.90
56066;DHT22;75952;50.922;4.514;2024-01-25T10:04:37;7.50;92.00
56066;DHT22;75952;50.922;4.514;2024-01-25T10:07:06;7.50;92.10
56066;DHT22;75952;50.922;4.514;2024-01-25T10:09:39;7.70;91.40
56066;DHT22;75952;50.922;4.514;2024-01-25T10:12:05;7.80;91.40
56066;DHT22;75952;50.922;4.514;2024-01-25T10:14:31;8.10;91.00
56066;DHT22;75952;50.922;4.514;2024-01-25T10:16:57;8.00;90.70
56066;DHT22;75952;50.922;4.514;2024-01-25T10:19:23;8.20;90.70
56066;DHT22;75952;50.922;4.514;2024-01-25T10:21:52;8.10;90.90
56066;DHT22;75952;50.922;4.514;2024-01-25T10:24:18;8.10;90.90
56066;DHT22;75952;50.922;4.514;2024-01-25T10:26:46;8.10;91.40
56066;DHT22;75952;50.922;4.514;2024-01-25T10:29:16;8.30;91.00
56066;DHT22;75952;50.922;4.514;2024-01-25T10:31:43;8.40;90.60
56066;DHT22;75952;50.922;4.514;2024-01-25T10:34:13;8.30;90.80
56066;DHT22;75952;50.922;4.514;2024-01-25T10:36:40;8.50;90.60
56066;DHT22;75952;50.922;4.514;2024-01-25T10:39:09;8.40;90.60
56066;DHT22;75952;50.922;4.514;2024-01-25T10:41:35;8.40;90.90
56066;DHT22;75952;50.922;4.514;2024-01-25T10:44:00;8.50;90.90
56066;DHT22;75952;50.922;4.514;2024-01-25T10:46:29;8.60;90.40
56066;DHT22;75952;50.922;4.514;2024-01-25T10:49:00;8.60;90.60
56066;DHT22;75952;50.922;4.514;2024-01-25T10:51:30;8.90;90.30
56066;DHT22;75952;50.922;4.514;2024-01-25T10:53:56;8.90;90.00
56066;DHT22;75952;50.922;4.514;2024-01-25T10:56:23;8.80;90.20
56066;DHT22;75952;50.922;4.514;2024-01-25T10:58:49;8.90;90.10
56066;DHT22;75952;50.922;4.514;2024-01-25T11:01:19;8.90;89.60
56066;DHT22;75952;50.922;4.514;2024-01-25T11:03:48;8.70;90.50
56066;DHT22;75952;50.922;4.514;2024-01-25T11:06:15;8.70;90.70
56066;DHT22;75952;50.922;4.514;2024-01-25T11:08:41;8.70;90.80
56066;DHT22;75952;50.922;4.514;2024-01-25T11:11:12;8.80;90.70
56066;DHT22;75952;50.922;4.514;2024-01-25T11:13:39;8.70;90.60
56066;DHT22;75952;50.922;4.514;2024-01-25T11:16:19;8.90;90.50
56066;DHT22;75952;50.922;4.514;2024-01-25T11:18:54;9.10;90.00
56066;DHT22;75952;50.922;4.514;2024-01-25T11:21:40;9.20;90.10
56066;DHT22;75952;50.922;4.514;2024-01-25T11:26:40;9.50;89.20
56066;DHT22;75952;50.922;4.514;2024-01-25T11:29:05;9.40;89.40
56066;DHT22;75952;50.922;4.514;2024-01-25T11:31:31;9.60;88.50
56066;DHT22;75952;50.922;4.514;2024-01-25T11:34:02;9.60;88.70
56066;DHT22;75952;50.922;4.514;2024-01-25T11:36:28;9.60;88.40
56066;DHT22;75952;50.922;4.514;2024-01-25T11:38:54;9.60;88.40
56066;DHT22;75952;50.922;4.514;2024-01-25T11:41:20;9.80;87.60
56066;DHT22;75952;50.922;4.514;2024-01-25T11:43:48;10.00;87.10
56066;DHT22;75952;50.922;4.514;2024-01-25T11:46:14;10.10;87.00
56066;DHT22;75952;50.922;4.514;2024-01-25T11:48:41;10.20;86.20
56066;DHT22;75952;50.922;4.514;2024-01-25T11:51:09;10.00;87.00
56066;DHT22;75952;50.922;4.514;2024-01-25T11:53:34;9.90;87.70
56066;DHT22;75952;50.922;4.514;2024-01-25T11:56:01;9.80;88.20
56066;DHT22;75952;50.922;4.514;2024-01-25T11:58:29;9.70;89.60
56066;DHT22;75952;50.922;4.514;2024-01-25T12:00:55;9.90;89.20
56066;DHT22;75952;50.922;4.514;2024-01-25T12:03:21;9.90;88.40
56066;DHT22;75952;50.922;4.514;2024-01-25T12:05:49;9.90;89.90
56066;DHT22;75952;50.922;4.514;2024-01-25T12:08:16;9.90;89.50
56066;DHT22;75952;50.922;4.514;2024-01-25T12:10:44;10.10;89.00
56066;DHT22;75952;50.922;4.514;2024-01-25T12:13:12;10.20;88.80
56066;DHT22;75952;50.922;4.514;2024-01-25T12:15:41;10.10;89.10
56066;DHT22;75952;50.922;4.514;2024-01-25T12:18:07;10.30;88.90
56066;DHT22;75952;50.922;4.514;2024-01-25T12:20:35;10.40;88.40
56066;DHT22;75952;50.922;4.514;2024-01-25T12:23:01;10.40;87.20
56066;DHT22;75952;50.922;4.514;2024-01-25T12:25:30;10.20;88.30
56066;DHT22;75952;50.922;4.514;2024-01-25T12:27:55;10.10;88.20
56066;DHT22;75952;50.922;4.514;2024-01-25T12:30:21;10.00;89.30
56066;DHT22;75952;50.922;4.514;2024-01-25T12:32:50;10.20;88.70
56066;DHT22;75952;50.922;4.514;2024-01-25T12:35:18;10.20;88.70
56066;DHT22;75952;50.922;4.514;2024-01-25T12:37:43;10.40;87.80
56066;DHT22;75952;50.922;4.514;2024-01-25T12:40:09;10.40;88.80
56066;DHT22;75952;50.922;4.514;2024-01-25T12:42:35;10.40;88.50
56066;DHT22;75952;50.922;4.514;2024-01-25T12:45:03;10.30;88.60
56066;DHT22;75952;50.922;4.514;2024-01-25T12:47:28;10.40;88.70
56066;DHT22;75952;50.922;4.514;2024-01-25T12:49:54;10.50;88.70
56066;DHT22;75952;50.922;4.514;2024-01-25T12:52:22;10.40;88.70
56066;DHT22;75952;50.922;4.514;2024-01-25T12:54:50;10.20;89.50
56066;DHT22;75952;50.922;4.514;2024-01-25T12:57:16;10.10;90.50
56066;DHT22;75952;50.922;4.514;2024-01-25T12:59:41;10.10;90.70
56066;DHT22;75952;50.922;4.514;2024-01-25T13:02:07;10.20;90.50
56066;DHT22;75952;50.922;4.514;2024-01-25T13:04:33;10.30;90.30
56066;DHT22;75952;50.922;4.514;2024-01-25T13:06:59;10.30;90.20
56066;DHT22;75952;50.922;4.514;2024-01-25T13:09:25;10.20;90.70
56066;DHT22;75952;50.922;4.514;2024-01-25T13:11:51;10.10;91.10
56066;DHT22;75952;50.922;4.514;2024-01-25T13:14:19;10.10;91.30
56066;DHT22;75952;50.922;4.514;2024-01-25T13:16:49;10.20;91.20
56066;DHT22;75952;50.922;4.514;2024-01-25T13:19:15;10.40;91.00
56066;DHT22;75952;50.922;4.514;2024-01-25T13:21:43;10.30;90.90
56066;DHT22;75952;50.922;4.514;2024-01-25T13:24:09;10.30;91.40
56066;DHT22;75952;50.922;4.514;2024-01-25T13:26:36;10.20;91.10
56066;DHT22;75952;50.922;4.514;2024-01-25T13:29:02;10.20;91.40
56066;DHT22;75952;50.922;4.514;2024-01-25T13:31:30;10.10;91.80
56066;DHT22;75952;50.922;4.514;2024-01-25T13:33:58;10.20;91.50
56066;DHT22;75952;50.922;4.514;2024-01-25T13:36:24;10.20;92.00
56066;DHT22;75952;50.922;4.514;2024-01-25T13:38:49;10.20;92.30
56066;DHT22;75952;50.922;4.514;2024-01-25T13:41:20;10.20;91.90
56066;DHT22;75952;50.922;4.514;2024-01-25T13:43:45;10.40;92.00
56066;DHT22;75952;50.922;4.514;2024-01-25T13:46:11;10.50;91.20
56066;DHT22;75952;50.922;4.514;2024-01-25T13:48:37;10.70;90.70
56066;DHT22;75952;50.922;4.514;2024-01-25T13:51:02;10.90;90.50
56066;DHT22;75952;50.922;4.514;2024-01-25T13:53:28;10.70;91.00
56066;DHT22;75952;50.922;4.514;2024-01-25T13:55:54;10.80;91.00
56066;DHT22;75952;50.922;4.514;2024-01-25T13:58:22;10.80;90.80
56066;DHT22;75952;50.922;4.514;2024-01-25T14:00:47;10.80;90.70
56066;DHT22;75952;50.922;4.514;2024-01-25T14:03:17;10.80;90.70
56066;DHT22;75952;50.922;4.514;2024-01-25T14:05:45;10.70;90.70
56066;DHT22;75952;50.922;4.514;2024-01-25T14:08:11;10.60;91.20
56066;DHT22;75952;50.922;4.514;2024-01-25T14:10:38;10.70;91.40
56066;DHT22;75952;50.922;4.514;2024-01-25T14:13:04;10.80;90.90
56066;DHT22;75952;50.922;4.514;2024-01-25T14:15:30;10.90;90.90
56066;DHT22;75952;50.922;4.514;2024-01-25T14:17:56;11.10;90.70
56066;DHT22;75952;50.922;4.514;2024-01-25T14:20:21;10.80;91.10
56066;DHT22;75952;50.922;4.514;2024-01-25T14:22:48;10.90;91.00
56066;DHT22;75952;50.922;4.514;2024-01-25T14:25:14;10.80;91.00
56066;DHT22;75952;50.922;4.514;2024-01-25T14:27:40;10.90;91.10
56066;DHT22;75952;50.922;4.514;2024-01-25T14:30:06;10.90;91.40
56066;DHT22;75952;50.922;4.514;2024-01-25T14:32:32;10.80;91.50
56066;DHT22;75952;50.922;4.514;2024-01-25T14:35:00;10.90;91.30
56066;DHT22;75952;50.922;4.514;2024-01-25T14:37:29;11.00;91.20
56066;DHT22;75952;50.922;4.514;2024-01-25T14:39:57;11.00;90.90
56066;DHT22;75952;50.922;4.514;2024-01-25T14:42:23;10.90;91.20
56066;DHT22;75952;50.922;4.514;2024-01-25T14:44:48;10.80;91.50
56066;DHT22;75952;50.922;4.514;2024-01-25T14:47:18;10.90;91.50
56066;DHT22;75952;50.922;4.514;2024-01-25T14:49:48;10.90;91.40
56066;DHT22;75952;50.922;4.514;2024-01-25T14:52:15;10.90;91.20
56066;DHT22;75952;50.922;4.514;2024-01-25T14:54:44;10.90;91.30
56066;DHT22;75952;50.922;4.514;2024-01-25T14:57:09;10.90;91.30
56066;DHT22;75952;50.922;4.514;2024-01-25T14:59:37;10.90;91.20
56066;DHT22;75952;50.922;4.514;2024-01-25T15:02:05;10.80;91.70
56066;DHT22;75952;50.922;4.514;2024-01-25T15:04:31;10.80;92.00
56066;DHT22;75952;50.922;4.514;2024-01-25T15:06:59;10.70;92.00
56066;DHT22;75952;50.922;4.514;2024-01-25T15:09:25;10.70;92.20
56066;DHT22;75952;50.922;4.514;2024-01-25T15:11:53;10.70;92.30
56066;DHT22;75952;50.922;4.514;2024-01-25T15:14:18;10.80;91.80
56066;DHT22;75952;50.922;4.514;2024-01-25T15:16:47;10.70;92.40
56066;DHT22;75952;50.922;4.514;2024-01-25T15:19:14;10.60;92.60
56066;DHT22;75952;50.922;4.514;2024-01-25T15:21:42;10.60;92.80
56066;DHT22;75952;50.922;4.514;2024-01-25T15:24:07;10.60;92.80
56066;DHT22;75952;50.922;4.514;2024-01-25T15:26:33;10.60;92.70
56066;DHT22;75952;50.922;4.514;2024-01-25T15:28:58;10.60;92.60
56066;DHT22;75952;50.922;4.514;2024-01-25T15:31:24;10.50;93.10
56066;DHT22;75952;50.922;4.514;2024-01-25T15:33:50;10.50;93.20
56066;DHT22;75952;50.922;4.514;2024-01-25T15:36:15;10.50;93.20
56066;DHT22;75952;50.922;4.514;2024-01-25T15:38:45;10.50;93.20
56066;DHT22;75952;50.922;4.514;2024-01-25T15:41:11;10.50;93.20